Time;durP1;ratioP1;P1;durP2;ratioP2;P2;SDS_P1;SDS_P2;PMS_P1;PMS_P2;Temp;Humidity;BMP_temperature;BMP_pressure;BME280_temperature;BME280_humidity;BME280_pressure;Samples;Min_cycle;Max_cycle;Signal;HPM_P1;HPM_P2
2021/10/08 00:01:47;;;;;;;35.30;31.60;;;7.10;99.90;;;;;;5058383;28;20460;-73
2021/10/08 00:04:15;;;;;;;36.93;33.43;;;7.10;99.90;;;;;;5065208;28;20799;-72
2021/10/08 00:06:42;;;;;;;39.40;34.67;;;7.00;99.90;;;;;;5066039;28;20469;-70
2021/10/08 00:09:09;;;;;;;37.13;33.10;;;7.00;99.90;;;;;;5066126;28;20487;-71
2021/10/08 00:11:38;;;;;;;36.23;32.70;;;7.00;99.90;;;;;;5063011;28;20488;-70
2021/10/08 00:14:05;;;;;;;37.67;33.47;;;7.00;99.90;;;;;;5060619;28;20461;-71
2021/10/08 00:16:32;;;;;;;38.33;33.90;;;6.90;99.90;;;;;;5061328;28;20463;-70
2021/10/08 00:19:00;;;;;;;37.90;33.80;;;6.90;99.90;;;;;;5055455;28;20455;-73
2021/10/08 00:21:27;;;;;;;36.90;33.00;;;6.90;99.90;;;;;;5061152;28;20471;-73
2021/10/08 00:23:54;;;;;;;38.90;34.73;;;6.90;99.90;;;;;;5061725;28;20462;-70
2021/10/08 00:26:21;;;;;;;36.33;32.60;;;6.80;99.90;;;;;;5062684;28;20474;-70
2021/10/08 00:28:49;;;;;;;36.77;32.97;;;6.80;99.90;;;;;;5063578;28;20804;-70
2021/10/08 00:31:16;;;;;;;35.43;31.87;;;6.70;99.90;;;;;;5063946;28;20478;-70
2021/10/08 00:33:43;;;;;;;39.30;35.20;;;6.70;99.90;;;;;;5061602;28;20476;-70
2021/10/08 00:36:11;;;;;;;37.57;32.37;;;6.60;99.90;;;;;;5059464;28;20456;-70
2021/10/08 00:38:40;;;;;;;36.90;33.20;;;6.60;99.90;;;;;;5056837;28;21024;-72
2021/10/08 00:41:07;;;;;;;38.00;34.00;;;6.60;99.90;;;;;;5062819;28;20550;-73
2021/10/08 00:43:34;;;;;;;35.70;31.23;;;6.60;99.90;;;;;;5063618;28;20459;-73
2021/10/08 00:46:04;;;;;;;36.07;32.47;;;6.60;99.90;;;;;;5063820;28;20449;-72
2021/10/08 00:48:32;;;;;;;34.77;31.17;;;6.50;99.90;;;;;;5059108;28;20466;-70
2021/10/08 00:51:00;;;;;;;37.57;33.87;;;6.50;99.90;;;;;;5057103;28;20500;-72
2021/10/08 00:53:27;;;;;;;37.10;33.20;;;6.50;99.90;;;;;;5058114;28;20942;-72
2021/10/08 00:55:55;;;;;;;37.10;33.17;;;6.40;99.90;;;;;;5059611;28;20450;-71
2021/10/08 00:58:24;;;;;;;35.73;31.83;;;6.40;99.90;;;;;;5063700;28;20464;-70
2021/10/08 01:00:52;;;;;;;37.97;33.50;;;6.50;99.90;;;;;;5054468;28;20460;-70
2021/10/08 01:03:22;;;;;;;37.57;33.93;;;6.40;99.90;;;;;;5052809;28;20466;-71
2021/10/08 01:05:50;;;;;;;36.43;32.53;;;6.40;99.90;;;;;;5059119;28;20463;-70
2021/10/08 01:08:18;;;;;;;36.67;33.17;;;6.30;99.90;;;;;;5057772;28;20577;-70
2021/10/08 01:10:46;;;;;;;38.80;31.73;;;6.30;99.90;;;;;;5058901;28;20549;-71
2021/10/08 01:13:15;;;;;;;41.30;33.67;;;6.30;99.90;;;;;;5065029;28;20491;-70
2021/10/08 01:15:42;;;;;;;34.07;30.93;;;6.20;99.90;;;;;;5057417;28;20470;-70
2021/10/08 01:18:10;;;;;;;52.77;31.00;;;6.20;99.90;;;;;;5055358;28;20454;-72
2021/10/08 01:20:40;;;;;;;36.90;32.17;;;6.20;99.90;;;;;;5062448;28;20483;-71
2021/10/08 01:23:07;;;;;;;33.77;30.67;;;6.20;99.90;;;;;;5054145;28;20811;-70
2021/10/08 01:25:35;;;;;;;34.60;31.17;;;6.10;99.90;;;;;;5061849;28;20546;-70
2021/10/08 01:28:04;;;;;;;32.77;29.83;;;6.10;99.90;;;;;;5065344;28;20451;-70
2021/10/08 01:30:32;;;;;;;33.00;30.10;;;6.00;99.90;;;;;;5055945;28;20456;-70
2021/10/08 01:33:00;;;;;;;36.23;32.63;;;5.90;99.90;;;;;;5054130;28;20482;-71
2021/10/08 01:35:27;;;;;;;33.70;30.57;;;5.90;99.90;;;;;;5056744;28;20466;-70
2021/10/08 01:37:56;;;;;;;37.63;31.70;;;5.80;99.90;;;;;;5057956;28;20941;-71
2021/10/08 01:40:23;;;;;;;33.97;30.73;;;5.80;99.90;;;;;;5052163;28;20467;-72
2021/10/08 01:42:51;;;;;;;33.63;30.73;;;5.70;99.90;;;;;;5061655;28;20857;-70
2021/10/08 01:45:18;;;;;;;33.37;30.47;;;5.70;99.90;;;;;;5055751;28;20873;-71
2021/10/08 01:47:45;;;;;;;33.43;30.53;;;5.60;99.90;;;;;;5055463;28;20465;-72
2021/10/08 01:50:13;;;;;;;32.30;29.50;;;5.70;99.90;;;;;;5064634;28;20459;-70
2021/10/08 01:52:40;;;;;;;31.33;28.40;;;5.60;99.90;;;;;;5062543;28;20483;-70
2021/10/08 01:55:09;;;;;;;36.37;31.53;;;5.60;99.90;;;;;;5060563;28;20455;-70
2021/10/08 01:57:36;;;;;;;33.30;30.20;;;5.50;99.90;;;;;;5057845;28;20450;-71
2021/10/08 02:00:05;;;;;;;31.67;28.77;;;5.50;99.90;;;;;;5054040;28;20463;-72
2021/10/08 02:02:31;;;;;;;30.87;28.03;;;5.60;99.90;;;;;;5063681;28;20875;-71
2021/10/08 02:04:58;;;;;;;33.10;29.87;;;5.60;99.90;;;;;;5060970;28;20452;-70
2021/10/08 02:07:26;;;;;;;31.43;28.63;;;5.50;99.90;;;;;;5065154;28;20458;-71
2021/10/08 02:09:53;;;;;;;31.40;28.60;;;5.50;99.90;;;;;;5063438;28;20459;-70
2021/10/08 02:12:21;;;;;;;31.60;28.80;;;5.50;99.90;;;;;;5065435;28;20495;-70
2021/10/08 02:14:49;;;;;;;30.03;27.63;;;5.40;99.90;;;;;;5063017;28;20454;-69
2021/10/08 02:17:17;;;;;;;32.70;29.73;;;5.40;99.90;;;;;;5065027;28;20452;-71
2021/10/08 02:19:43;;;;;;;30.93;28.33;;;5.30;99.90;;;;;;5064302;28;21005;-69
2021/10/08 02:22:10;;;;;;;29.93;27.53;;;5.30;99.90;;;;;;5059868;28;20469;-70
2021/10/08 02:24:37;;;;;;;32.23;29.50;;;5.30;99.90;;;;;;5059947;28;20455;-70
2021/10/08 02:27:04;;;;;;;30.87;28.20;;;5.30;99.90;;;;;;5063461;28;20472;-70
2021/10/08 02:29:33;;;;;;;30.63;28.03;;;5.30;99.90;;;;;;5060258;28;20476;-70
2021/10/08 02:32:01;;;;;;;33.17;30.27;;;5.30;99.90;;;;;;5058178;28;20475;-69
2021/10/08 02:34:29;;;;;;;30.63;27.77;;;5.30;99.90;;;;;;5062264;28;20455;-70
2021/10/08 02:36:56;;;;;;;29.03;26.40;;;5.20;99.90;;;;;;5060555;28;20553;-71
2021/10/08 02:39:23;;;;;;;32.33;29.33;;;5.20;99.90;;;;;;5059072;28;20455;-70
2021/10/08 02:41:50;;;;;;;31.80;29.03;;;5.20;99.90;;;;;;5063288;28;20968;-72
2021/10/08 02:44:17;;;;;;;32.57;29.77;;;5.30;99.90;;;;;;5063522;28;20971;-70
2021/10/08 02:46:46;;;;;;;31.57;28.93;;;5.30;99.90;;;;;;5065575;28;20852;-70
2021/10/08 02:49:17;;;;;;;31.37;28.83;;;5.30;99.90;;;;;;5055198;28;20463;-72
2021/10/08 02:51:44;;;;;;;31.43;28.70;;;5.30;99.90;;;;;;5057542;28;20482;-70
2021/10/08 02:54:11;;;;;;;31.43;28.60;;;5.20;99.90;;;;;;5058605;28;20495;-70
2021/10/08 02:56:38;;;;;;;31.43;28.93;;;5.20;99.90;;;;;;5063663;28;20533;-70
2021/10/08 02:59:05;;;;;;;32.60;29.57;;;5.20;99.90;;;;;;5057001;28;20471;-70
2021/10/08 03:01:33;;;;;;;32.33;29.43;;;5.20;99.90;;;;;;5060348;28;20561;-70
2021/10/08 03:04:03;;;;;;;34.60;31.13;;;5.20;99.90;;;;;;5062288;28;20830;-72
2021/10/08 03:06:31;;;;;;;32.53;29.53;;;5.10;99.90;;;;;;5060254;28;20447;-72
2021/10/08 03:08:58;;;;;;;32.70;29.90;;;5.10;99.90;;;;;;5058039;28;20483;-71
2021/10/08 03:11:25;;;;;;;32.23;29.43;;;5.00;99.90;;;;;;5062039;28;20485;-72
2021/10/08 03:13:52;;;;;;;31.23;28.60;;;5.00;99.90;;;;;;5056642;28;20804;-69
2021/10/08 03:16:20;;;;;;;47.23;29.10;;;4.90;99.90;;;;;;5060449;28;20926;-69
2021/10/08 03:18:47;;;;;;;32.00;28.97;;;4.90;99.90;;;;;;5056632;28;20473;-70
2021/10/08 03:21:16;;;;;;;31.17;28.47;;;4.90;99.90;;;;;;5060417;28;20468;-71
2021/10/08 03:23:43;;;;;;;76.43;33.33;;;4.80;99.90;;;;;;5058662;28;20466;-69
2021/10/08 03:26:10;;;;;;;31.90;28.90;;;4.80;99.90;;;;;;5054940;28;20608;-69
2021/10/08 03:28:38;;;;;;;30.60;28.13;;;4.80;99.90;;;;;;5061971;28;20463;-71
2021/10/08 03:31:05;;;;;;;31.60;28.40;;;4.80;99.90;;;;;;5054631;28;20463;-70
2021/10/08 03:33:33;;;;;;;32.93;29.47;;;4.90;99.90;;;;;;5056972;28;20479;-69
2021/10/08 03:36:00;;;;;;;30.63;27.63;;;4.90;99.90;;;;;;5053326;28;20730;-69
2021/10/08 03:38:31;;;;;;;31.57;28.30;;;4.90;99.90;;;;;;5062231;28;20460;-69
2021/10/08 03:41:06;;;;;;;30.10;27.50;;;4.80;99.90;;;;;;5058829;28;20512;-69
2021/10/08 03:43:34;;;;;;;29.53;27.13;;;4.90;99.90;;;;;;5061132;28;20451;-69
2021/10/08 03:46:05;;;;;;;30.73;27.73;;;4.90;99.90;;;;;;5060066;28;20459;-71
2021/10/08 03:48:58;;;;;;;32.27;29.07;;;4.80;99.90;;;;;;5060379;28;20465;-70
2021/10/08 03:51:25;;;;;;;29.60;27.37;;;4.80;99.90;;;;;;5054978;28;20547;-69
2021/10/08 03:53:54;;;;;;;30.60;28.10;;;4.80;99.90;;;;;;5061642;28;20495;-70
2021/10/08 03:56:22;;;;;;;29.60;27.10;;;4.70;99.90;;;;;;5059332;28;20467;-72
2021/10/08 03:58:49;;;;;;;31.07;28.13;;;4.70;99.90;;;;;;5061378;28;20460;-69
2021/10/08 04:01:16;;;;;;;30.83;28.03;;;4.70;99.90;;;;;;5054283;28;20476;-70
2021/10/08 04:03:43;;;;;;;29.97;26.77;;;4.70;99.90;;;;;;5067176;28;20460;-70
2021/10/08 04:06:11;;;;;;;30.33;27.23;;;4.70;99.90;;;;;;5056283;28;20463;-70
2021/10/08 04:08:37;;;;;;;31.20;28.37;;;4.70;99.90;;;;;;5057906;28;20463;-70
2021/10/08 04:11:06;;;;;;;29.20;26.70;;;4.80;99.90;;;;;;5056690;28;20739;-70
2021/10/08 04:13:33;;;;;;;29.57;27.00;;;4.80;99.90;;;;;;5058331;28;20483;-70
2021/10/08 04:15:59;;;;;;;30.20;27.70;;;4.70;99.90;;;;;;5058889;28;20456;-70
2021/10/08 04:18:26;;;;;;;31.07;28.17;;;4.60;99.90;;;;;;5062795;28;20466;-70
2021/10/08 04:20:53;;;;;;;30.87;28.00;;;4.70;99.90;;;;;;5060818;28;20477;-70
2021/10/08 04:23:21;;;;;;;30.87;28.03;;;4.70;99.90;;;;;;5057398;28;20469;-72
2021/10/08 04:25:49;;;;;;;30.83;27.97;;;4.60;99.90;;;;;;5057831;28;20609;-70
2021/10/08 04:28:18;;;;;;;31.23;28.53;;;4.60;99.90;;;;;;5058477;28;20459;-71
2021/10/08 04:30:46;;;;;;;30.63;27.83;;;4.50;99.90;;;;;;5059668;28;20874;-70
2021/10/08 04:33:14;;;;;;;33.40;30.20;;;4.50;99.90;;;;;;5056980;28;20486;-69
2021/10/08 04:35:44;;;;;;;31.10;28.37;;;4.50;99.90;;;;;;5058794;28;20460;-71
2021/10/08 04:38:12;;;;;;;29.90;27.47;;;4.50;99.90;;;;;;5061075;28;20464;-69
2021/10/08 04:40:40;;;;;;;30.60;27.93;;;4.40;99.90;;;;;;5058083;28;20456;-70
2021/10/08 04:43:07;;;;;;;29.93;27.33;;;4.30;99.90;;;;;;5062374;28;20467;-70
2021/10/08 04:45:36;;;;;;;29.63;27.07;;;4.30;99.90;;;;;;5061577;28;20494;-69
2021/10/08 04:48:03;;;;;;;31.13;28.33;;;4.30;99.90;;;;;;5057808;28;20819;-69
2021/10/08 04:50:30;;;;;;;30.63;27.93;;;4.30;99.90;;;;;;5056704;28;20451;-69
2021/10/08 04:52:58;;;;;;;32.97;29.60;;;4.20;99.90;;;;;;5059620;28;20505;-70
2021/10/08 04:55:26;;;;;;;30.27;27.57;;;4.20;99.90;;;;;;5058889;28;20470;-69
2021/10/08 04:57:53;;;;;;;28.30;25.67;;;4.30;99.90;;;;;;5062977;28;20814;-72
2021/10/08 05:00:20;;;;;;;31.00;28.13;;;4.30;99.90;;;;;;5055189;28;20472;-70
2021/10/08 05:02:48;;;;;;;30.97;28.30;;;4.30;99.90;;;;;;5063399;28;20466;-69
2021/10/08 05:05:15;;;;;;;32.10;28.90;;;4.30;99.90;;;;;;5060938;28;20455;-69
2021/10/08 05:07:42;;;;;;;31.37;28.60;;;4.30;99.90;;;;;;5060787;28;20474;-70
2021/10/08 05:10:10;;;;;;;31.73;28.83;;;4.30;99.90;;;;;;5055988;28;20462;-70
2021/10/08 05:12:37;;;;;;;30.17;27.23;;;4.30;99.90;;;;;;5060306;28;20490;-71
2021/10/08 05:15:06;;;;;;;29.17;26.57;;;4.30;99.90;;;;;;5059085;28;20521;-69
2021/10/08 05:17:33;;;;;;;29.87;27.33;;;4.30;99.90;;;;;;5057790;28;20491;-70
2021/10/08 05:20:01;;;;;;;30.20;27.47;;;4.30;99.90;;;;;;5062360;28;20491;-70
2021/10/08 05:22:28;;;;;;;33.20;28.37;;;4.20;99.90;;;;;;5060932;28;20500;-69
2021/10/08 05:24:55;;;;;;;31.10;28.00;;;4.20;99.90;;;;;;5061089;28;20467;-70
2021/10/08 05:27:22;;;;;;;30.10;27.70;;;4.20;99.90;;;;;;5063533;28;20462;-71
2021/10/08 05:29:49;;;;;;;29.60;27.10;;;4.20;99.90;;;;;;5059667;28;20451;-70
2021/10/08 05:32:16;;;;;;;45.40;28.23;;;4.20;99.90;;;;;;5060553;28;20459;-69
2021/10/08 05:34:43;;;;;;;30.60;27.90;;;4.30;99.90;;;;;;5057273;28;20466;-72
2021/10/08 05:37:12;;;;;;;31.63;28.50;;;4.20;99.90;;;;;;5061531;28;21058;-72
2021/10/08 05:39:39;;;;;;;30.40;27.60;;;4.30;99.90;;;;;;5059650;28;20463;-71
2021/10/08 05:42:06;;;;;;;30.43;27.93;;;4.30;99.90;;;;;;5057253;28;20891;-72
2021/10/08 05:44:33;;;;;;;31.33;28.50;;;4.30;99.90;;;;;;5060563;28;20487;-72
2021/10/08 05:47:00;;;;;;;31.23;28.53;;;4.40;99.90;;;;;;5058130;28;20463;-70
2021/10/08 05:49:28;;;;;;;33.10;30.00;;;4.30;99.90;;;;;;5058625;28;20454;-69
2021/10/08 05:51:55;;;;;;;31.60;28.40;;;4.30;99.90;;;;;;5059495;28;20515;-70
2021/10/08 05:54:23;;;;;;;30.70;28.10;;;4.30;99.90;;;;;;5061921;28;20491;-70
2021/10/08 05:56:52;;;;;;;28.07;25.67;;;4.40;99.90;;;;;;5061407;28;20951;-71
2021/10/08 05:59:19;;;;;;;30.50;27.70;;;4.40;99.90;;;;;;5062013;28;20471;-69
2021/10/08 06:01:46;;;;;;;33.23;30.13;;;4.40;99.90;;;;;;5058009;28;20474;-71
2021/10/08 06:04:13;;;;;;;56.10;46.70;;;4.50;99.90;;;;;;5056279;28;20467;-69
2021/10/08 06:06:41;;;;;;;32.20;29.30;;;4.60;99.90;;;;;;5052266;28;20471;-69
2021/10/08 06:09:08;;;;;;;34.23;30.40;;;4.60;99.90;;;;;;5055023;28;21226;-69
2021/10/08 06:11:36;;;;;;;31.50;28.40;;;4.60;99.90;;;;;;5056246;28;20485;-69
2021/10/08 06:14:03;;;;;;;31.77;28.97;;;4.70;99.90;;;;;;5060995;28;20529;-69
2021/10/08 06:16:30;;;;;;;38.63;28.47;;;4.80;99.90;;;;;;5055647;28;20833;-69
2021/10/08 06:18:58;;;;;;;30.77;27.77;;;4.80;99.90;;;;;;5054956;28;20466;-72
2021/10/08 06:21:25;;;;;;;31.80;28.40;;;4.90;99.90;;;;;;5053712;28;20467;-70
2021/10/08 06:23:52;;;;;;;50.57;28.60;;;4.90;99.90;;;;;;5057865;28;20727;-72
2021/10/08 06:26:19;;;;;;;55.30;30.27;;;5.00;99.90;;;;;;5056255;28;20484;-71
2021/10/08 06:28:47;;;;;;;243.17;35.87;;;5.10;99.90;;;;;;5055515;28;20462;-70
2021/10/08 06:31:14;;;;;;;57.40;31.77;;;5.10;99.90;;;;;;5051369;28;20468;-69
2021/10/08 06:33:40;;;;;;;47.07;29.67;;;5.20;99.90;;;;;;5058614;28;20475;-70
2021/10/08 06:36:08;;;;;;;136.93;33.97;;;5.20;99.90;;;;;;5057372;28;20466;-71
2021/10/08 06:38:34;;;;;;;75.77;33.47;;;5.30;99.90;;;;;;5055993;28;20463;-72
2021/10/08 06:41:01;;;;;;;71.83;34.80;;;5.50;99.90;;;;;;5059192;28;20457;-72
2021/10/08 06:43:28;;;;;;;54.80;32.33;;;5.60;99.90;;;;;;5057276;28;20462;-71
2021/10/08 06:45:57;;;;;;;51.13;33.87;;;5.80;99.90;;;;;;5056683;28;20510;-72
2021/10/08 06:48:23;;;;;;;56.97;33.90;;;5.90;99.90;;;;;;5060780;28;20558;-72
2021/10/08 06:50:50;;;;;;;66.33;33.83;;;6.10;99.90;;;;;;5060473;28;20460;-70
2021/10/08 06:53:17;;;;;;;127.27;44.00;;;6.20;99.90;;;;;;5056351;28;20475;-71
2021/10/08 06:55:46;;;;;;;260.63;40.73;;;6.30;99.90;;;;;;5059731;28;20816;-71
2021/10/08 06:58:13;;;;;;;74.50;38.50;;;6.50;99.90;;;;;;5055449;28;20558;-70
2021/10/08 07:00:40;;;;;;;146.63;37.77;;;6.50;99.90;;;;;;5062638;28;20469;-70
2021/10/08 07:03:08;;;;;;;82.20;34.23;;;6.60;99.90;;;;;;5053802;28;20486;-72
2021/10/08 07:05:35;;;;;;;40.57;32.00;;;6.60;99.90;;;;;;5058300;28;20869;-71
2021/10/08 07:08:02;;;;;;;45.23;32.97;;;6.70;99.90;;;;;;5056702;28;20481;-69
2021/10/08 07:10:29;;;;;;;46.83;32.80;;;6.80;99.90;;;;;;5051159;28;21186;-71
2021/10/08 07:12:56;;;;;;;41.53;31.97;;;6.80;99.90;;;;;;5038756;28;20787;-69
2021/10/08 07:15:24;;;;;;;49.30;34.00;;;6.90;99.90;;;;;;5051453;28;20557;-70
2021/10/08 07:17:54;;;;;;;32.77;29.47;;;6.90;99.90;;;;;;5056268;28;20460;-70
2021/10/08 07:20:25;;;;;;;41.27;32.47;;;7.00;99.90;;;;;;5061326;28;20478;-70
2021/10/08 07:22:52;;;;;;;38.03;31.70;;;7.10;99.90;;;;;;5052375;28;20459;-71
2021/10/08 07:25:19;;;;;;;40.37;31.57;;;7.10;99.90;;;;;;5052810;28;20462;-70
2021/10/08 07:27:47;;;;;;;34.60;31.03;;;7.20;99.90;;;;;;5060027;28;20455;-70
2021/10/08 07:30:15;;;;;;;50.93;35.47;;;7.40;99.90;;;;;;5052552;28;20626;-70
2021/10/08 07:32:42;;;;;;;34.77;31.40;;;7.50;99.90;;;;;;5054614;28;20468;-71
2021/10/08 07:35:10;;;;;;;44.90;31.90;;;7.60;99.90;;;;;;5052752;28;20492;-71
2021/10/08 07:37:40;;;;;;;40.07;32.43;;;7.90;99.90;;;;;;5049166;28;20463;-70
2021/10/08 07:40:09;;;;;;;34.47;30.97;;;8.00;99.90;;;;;;5045223;28;21086;-70
2021/10/08 07:42:36;;;;;;;38.87;31.90;;;8.20;99.90;;;;;;5057841;28;20471;-72
2021/10/08 07:45:05;;;;;;;40.37;30.20;;;8.30;99.90;;;;;;5055954;28;20877;-70
2021/10/08 07:47:32;;;;;;;37.87;31.20;;;8.40;99.90;;;;;;5054133;28;20863;-70
2021/10/08 07:49:59;;;;;;;38.87;31.17;;;8.50;99.90;;;;;;5053744;28;20471;-72
2021/10/08 07:52:26;;;;;;;43.03;32.40;;;8.60;99.90;;;;;;5050741;28;20452;-72
2021/10/08 07:54:54;;;;;;;37.53;32.87;;;8.70;99.90;;;;;;5050286;28;20887;-71
2021/10/08 07:57:21;;;;;;;35.37;31.67;;;8.80;99.90;;;;;;5024323;28;20467;-72
2021/10/08 07:59:48;;;;;;;35.13;31.50;;;8.90;99.90;;;;;;5055493;28;20474;-71
2021/10/08 08:02:15;;;;;;;36.13;31.53;;;9.20;99.90;;;;;;5058496;28;20459;-70
2021/10/08 08:04:42;;;;;;;37.43;31.80;;;9.30;99.90;;;;;;5058982;28;20797;-70
2021/10/08 08:07:09;;;;;;;41.83;31.50;;;9.40;99.90;;;;;;5056320;28;20459;-70
2021/10/08 08:09:36;;;;;;;39.60;32.33;;;9.60;99.90;;;;;;5055504;28;20479;-70
2021/10/08 08:12:04;;;;;;;39.87;33.40;;;9.70;99.90;;;;;;5057728;28;20491;-70
2021/10/08 08:14:31;;;;;;;48.80;32.27;;;9.80;99.90;;;;;;5057113;28;20502;-70
2021/10/08 08:16:58;;;;;;;46.03;33.27;;;9.90;99.90;;;;;;5055134;28;20474;-70
2021/10/08 08:19:25;;;;;;;43.77;31.50;;;10.10;99.90;;;;;;5059439;28;20542;-72
2021/10/08 08:21:52;;;;;;;54.20;33.00;;;10.30;99.90;;;;;;5051540;28;20456;-72
2021/10/08 08:24:19;;;;;;;37.40;33.40;;;10.40;99.90;;;;;;5055285;28;20467;-69
2021/10/08 08:26:46;;;;;;;44.83;33.47;;;10.40;99.90;;;;;;5058720;28;20513;-71
2021/10/08 08:29:14;;;;;;;34.50;31.00;;;10.50;99.90;;;;;;5056782;28;20875;-71
2021/10/08 08:31:42;;;;;;;46.47;32.20;;;10.60;99.90;;;;;;5053458;28;20460;-72
2021/10/08 08:34:09;;;;;;;37.47;32.83;;;10.70;99.90;;;;;;5056558;28;20486;-70
2021/10/08 08:36:36;;;;;;;45.30;34.57;;;10.80;99.90;;;;;;5056581;28;20459;-72
2021/10/08 08:39:07;;;;;;;37.50;33.53;;;10.90;99.90;;;;;;5055140;28;20459;-72
2021/10/08 08:41:35;;;;;;;41.50;34.73;;;10.90;99.90;;;;;;5054603;28;20462;-70
2021/10/08 08:44:02;;;;;;;48.03;34.07;;;11.10;99.90;;;;;;5056272;28;20461;-72
2021/10/08 08:46:31;;;;;;;38.33;32.40;;;11.20;99.90;;;;;;5054457;28;20475;-70
2021/10/08 08:49:00;;;;;;;43.90;31.17;;;11.30;99.90;;;;;;5056544;28;20460;-69
2021/10/08 08:51:28;;;;;;;34.13;29.97;;;11.40;99.90;;;;;;5055898;28;20805;-70
2021/10/08 08:53:57;;;;;;;35.97;32.43;;;11.60;99.90;;;;;;5052533;28;20491;-70
2021/10/08 08:56:24;;;;;;;34.87;30.57;;;11.90;99.90;;;;;;5050827;28;20490;-70
2021/10/08 08:58:59;;;;;;;33.40;30.10;;;12.10;99.90;;;;;;5054023;28;20460;-70
2021/10/08 09:01:25;;;;;;;36.57;32.13;;;12.30;99.90;;;;;;5056357;28;20538;-70
2021/10/08 09:04:05;;;;;;;36.07;32.23;;;12.40;99.90;;;;;;5053473;28;20462;-69
2021/10/08 09:06:33;;;;;;;37.50;33.33;;;12.40;99.90;;;;;;5057937;28;20526;-73
2021/10/08 09:09:00;;;;;;;35.43;31.80;;;12.40;99.90;;;;;;5058721;28;20459;-73
2021/10/08 09:11:45;;;;;;;36.90;32.00;;;12.50;99.90;;;;;;5059288;28;20488;-70
2021/10/08 09:14:19;;;;;;;35.83;32.10;;;12.60;99.90;;;;;;5061292;28;20494;-70
2021/10/08 09:17:05;;;;;;;36.47;32.53;;;12.80;99.90;;;;;;5057215;28;20821;-72
2021/10/08 09:19:48;;;;;;;33.27;30.10;;;12.90;99.90;;;;;;5051674;28;20570;-70
2021/10/08 09:22:16;;;;;;;32.90;30.00;;;12.90;99.90;;;;;;5055950;28;20462;-73
2021/10/08 09:24:43;;;;;;;35.50;32.17;;;12.90;99.90;;;;;;5053161;28;20962;-70
2021/10/08 09:27:10;;;;;;;34.43;30.80;;;13.00;99.90;;;;;;5056755;28;20489;-70
2021/10/08 09:29:37;;;;;;;34.43;30.70;;;13.20;99.90;;;;;;5051775;28;20456;-70
2021/10/08 09:32:04;;;;;;;35.67;30.00;;;13.30;99.90;;;;;;5060856;28;20464;-70
2021/10/08 09:34:31;;;;;;;33.13;28.73;;;13.30;99.90;;;;;;5051152;28;20487;-70
2021/10/08 09:37:02;;;;;;;37.30;31.10;;;13.50;99.90;;;;;;5056151;28;20486;-70
2021/10/08 09:39:32;;;;;;;33.17;29.40;;;13.60;99.90;;;;;;5053521;28;20457;-70
2021/10/08 09:42:01;;;;;;;31.37;28.17;;;13.60;99.90;;;;;;5047068;28;20470;-71
2021/10/08 09:44:29;;;;;;;31.07;28.07;;;13.70;99.90;;;;;;5054696;28;20467;-70
2021/10/08 09:47:12;;;;;;;30.67;27.77;;;13.80;99.90;;;;;;5061114;28;20466;-70
2021/10/08 09:49:39;;;;;;;27.00;24.30;;;14.10;99.90;;;;;;5052298;28;20458;-72
2021/10/08 09:52:25;;;;;;;28.40;25.63;;;14.80;99.90;;;;;;5047653;28;20468;-71
2021/10/08 09:54:53;;;;;;;26.70;22.67;;;15.60;99.90;;;;;;5048100;28;20483;-70
2021/10/08 09:57:21;;;;;;;26.40;23.70;;;16.70;99.90;;;;;;5055488;28;20463;-70
2021/10/08 09:59:49;;;;;;;26.70;23.73;;;17.40;99.90;;;;;;5049265;28;20468;-71
2021/10/08 10:02:16;;;;;;;24.10;22.00;;;18.30;99.90;;;;;;5056795;28;20489;-72
2021/10/08 10:04:48;;;;;;;23.73;21.60;;;18.90;99.90;;;;;;5049898;28;20537;-72
2021/10/08 10:07:16;;;;;;;23.47;21.30;;;19.10;99.90;;;;;;5057542;28;20450;-71
2021/10/08 10:09:46;;;;;;;25.07;22.37;;;19.30;99.90;;;;;;5059335;28;20829;-71
2021/10/08 10:12:14;;;;;;;22.50;20.90;;;19.70;99.90;;;;;;5054036;28;20487;-71
2021/10/08 10:14:44;;;;;;;21.70;20.20;;;20.10;99.90;;;;;;5059727;28;20595;-71
2021/10/08 10:17:11;;;;;;;19.63;18.43;;;20.60;99.90;;;;;;5051521;28;21239;-71
2021/10/08 10:19:43;;;;;;;20.47;19.17;;;20.70;99.90;;;;;;5064500;28;20494;-73
2021/10/08 10:22:15;;;;;;;20.10;18.80;;;21.20;99.90;;;;;;5057777;28;20458;-71
2021/10/08 10:24:46;;;;;;;19.93;18.20;;;21.80;99.90;;;;;;5057740;28;20459;-71
2021/10/08 10:27:15;;;;;;;20.30;18.90;;;21.60;99.90;;;;;;5057757;28;20452;-71
2021/10/08 10:29:43;;;;;;;21.73;19.93;;;21.70;99.90;;;;;;5059446;28;20495;-74
2021/10/08 10:32:11;;;;;;;20.40;18.70;;;22.10;99.90;;;;;;5058238;28;20455;-71
2021/10/08 10:34:40;;;;;;;18.70;17.40;;;22.80;99.90;;;;;;5061417;28;20482;-72
2021/10/08 10:37:09;;;;;;;20.67;19.23;;;22.90;99.90;;;;;;5057347;28;20541;-71
2021/10/08 10:39:36;;;;;;;19.80;18.40;;;22.80;99.90;;;;;;5059625;28;20949;-74
2021/10/08 10:42:18;;;;;;;19.40;17.67;;;23.50;99.90;;;;;;5062302;28;20460;-72
2021/10/08 10:45:11;;;;;;;18.03;16.93;;;23.40;99.90;;;;;;5061474;28;20481;-69
2021/10/08 10:47:39;;;;;;;18.83;17.53;;;23.30;99.90;;;;;;5061494;28;20478;-71
2021/10/08 10:50:15;;;;;;;18.53;17.40;;;23.30;99.90;;;;;;5054879;28;20544;-72
2021/10/08 10:52:53;;;;;;;18.80;17.60;;;23.20;99.90;;;;;;5057639;28;20991;-71
2021/10/08 10:55:22;;;;;;;18.93;17.83;;;22.60;99.90;;;;;;5056001;28;20501;-70
2021/10/08 10:57:56;;;;;;;18.03;16.93;;;22.60;99.90;;;;;;5055784;28;21527;-74
2021/10/08 11:00:25;;;;;;;19.40;18.10;;;22.90;99.90;;;;;;5051806;28;20459;-71
2021/10/08 11:03:04;;;;;;;19.83;18.40;;;23.10;99.90;;;;;;5060750;28;20800;-71
2021/10/08 11:05:32;;;;;;;19.40;18.17;;;23.30;99.90;;;;;;5058067;28;20491;-70
2021/10/08 11:08:12;;;;;;;19.57;18.03;;;23.20;99.90;;;;;;5048318;28;20817;-69
2021/10/08 11:10:41;;;;;;;18.80;17.60;;;22.90;99.90;;;;;;5061395;28;20536;-70
2021/10/08 11:13:31;;;;;;;19.67;18.20;;;22.70;99.90;;;;;;5059237;28;21206;-72
2021/10/08 11:16:00;;;;;;;19.37;18.00;;;23.00;99.90;;;;;;5053801;28;20482;-70
2021/10/08 11:18:42;;;;;;;20.10;18.40;;;23.30;99.90;;;;;;5056700;28;20460;-71
2021/10/08 11:21:10;;;;;;;19.03;17.87;;;22.40;99.90;;;;;;5056232;28;20564;-71
2021/10/08 11:23:38;;;;;;;19.60;18.10;;;22.50;99.90;;;;;;5058786;28;20459;-74
2021/10/08 11:26:09;;;;;;;19.37;18.07;;;23.00;99.90;;;;;;5056632;28;20467;-71
2021/10/08 11:28:39;;;;;;;19.97;18.67;;;23.40;99.90;;;;;;5053656;28;20466;-71
2021/10/08 11:31:08;;;;;;;19.37;18.17;;;23.50;99.90;;;;;;5055897;28;20880;-71
2021/10/08 11:33:41;;;;;;;19.20;17.90;;;24.10;99.90;;;;;;5056813;28;20454;-74
2021/10/08 11:36:28;;;;;;;19.07;17.67;;;24.40;99.90;;;;;;5052827;28;20492;-74
2021/10/08 11:39:10;;;;;;;18.93;17.37;;;24.70;99.90;;;;;;5053196;28;20469;-74
2021/10/08 11:41:38;;;;;;;18.30;17.20;;;24.70;99.90;;;;;;5053234;28;20549;-70
2021/10/08 11:44:15;;;;;;;17.73;16.67;;;25.10;99.90;;;;;;5060060;28;20467;-71
2021/10/08 11:46:54;;;;;;;18.17;16.97;;;24.80;99.10;;;;;;5058412;28;20463;-71
2021/10/08 11:52:06;;;;;;;19.13;17.93;;;24.10;99.70;;;;;;5052774;28;20654;-74
2021/10/08 20:26:55;;;;;;;26.53;24.03;;;11.80;99.90;;;;;;5114893;27;20589;-70
2021/10/08 20:29:24;;;;;;;26.07;23.67;;;12.10;99.90;;;;;;5096486;27;20502;-68
2021/10/08 20:34:22;;;;;;;25.17;23.13;;;12.00;99.90;;;;;;5039521;28;20478;-72
2021/10/08 20:36:48;;;;;;;25.80;23.77;;;11.90;99.90;;;;;;5036482;28;20911;-70
2021/10/08 20:39:15;;;;;;;28.20;25.53;;;11.90;99.90;;;;;;5034630;28;20484;-70
2021/10/08 20:41:42;;;;;;;29.63;26.57;;;11.80;99.90;;;;;;5035256;28;20464;-70
2021/10/08 20:44:11;;;;;;;28.20;25.67;;;11.70;99.90;;;;;;5040326;28;20468;-70
2021/10/08 20:46:38;;;;;;;27.70;25.30;;;11.70;99.90;;;;;;5040100;28;20469;-72
2021/10/08 20:49:05;;;;;;;29.90;27.20;;;11.60;99.90;;;;;;5031175;28;20457;-71
2021/10/08 20:51:32;;;;;;;29.17;26.70;;;11.50;99.90;;;;;;5036273;28;20452;-72
2021/10/08 20:53:59;;;;;;;27.80;25.60;;;11.40;99.90;;;;;;5036099;28;20464;-73
2021/10/08 20:56:26;;;;;;;28.50;26.30;;;11.30;99.90;;;;;;5038253;28;20487;-70
2021/10/08 20:58:53;;;;;;;28.07;25.67;;;11.20;99.90;;;;;;5031765;28;20472;-70
2021/10/08 21:01:21;;;;;;;29.67;27.23;;;11.10;99.90;;;;;;5036809;28;20455;-68
2021/10/08 21:03:48;;;;;;;28.30;26.10;;;11.00;99.90;;;;;;5021838;28;20468;-69
2021/10/08 21:06:16;;;;;;;28.50;26.30;;;10.90;99.90;;;;;;5037903;28;20495;-68
2021/10/08 21:08:43;;;;;;;28.80;26.33;;;10.90;99.90;;;;;;5041665;28;20470;-68
2021/10/08 21:11:10;;;;;;;30.40;27.60;;;10.90;99.90;;;;;;5037776;28;21296;-68
2021/10/08 21:13:39;;;;;;;29.57;27.00;;;10.90;99.90;;;;;;5032908;28;20838;-68
2021/10/08 21:16:06;;;;;;;30.30;27.60;;;11.00;99.90;;;;;;5021249;28;20591;-68
2021/10/08 21:18:35;;;;;;;27.93;25.30;;;10.90;99.90;;;;;;5019728;28;20468;-70